createdAt,value
2016-12-30T00:00:51.789Z,1032.1
2016-12-30T00:03:24.107Z,1032
2016-12-30T00:05:56.435Z,1032
2016-12-30T00:08:28.759Z,1032
2016-12-30T00:11:01.068Z,1032
2016-12-30T00:13:33.584Z,1032.1
2016-12-30T00:16:05.888Z,1032.1
2016-12-30T00:18:38.244Z,1032.1
2016-12-30T00:21:10.557Z,1032.1
2016-12-30T00:23:42.890Z,1032.2
2016-12-30T00:26:15.194Z,1032.2
2016-12-30T00:28:47.502Z,1032.2
2016-12-30T00:31:19.826Z,1032.2
2016-12-30T00:33:52.143Z,1032.1
2016-12-30T00:36:24.456Z,1032.1
2016-12-30T00:38:56.769Z,1032.1
2016-12-30T00:41:29.101Z,1032.1
2016-12-30T00:44:01.436Z,1032.1
2016-12-30T00:46:33.761Z,1032.1
2016-12-30T00:49:06.070Z,1032.2
2016-12-30T00:51:38.390Z,1032.2
2016-12-30T00:54:10.709Z,1032.2
2016-12-30T00:56:43.039Z,1032.1
2016-12-30T00:59:15.367Z,1032.1
2016-12-30T01:01:47.693Z,1032
2016-12-30T01:04:20.014Z,1032
2016-12-30T01:06:52.328Z,1032
2016-12-30T01:09:24.656Z,1032.1
2016-12-30T01:11:56.960Z,1032
2016-12-30T01:14:29.306Z,1032
2016-12-30T01:17:01.626Z,1032
2016-12-30T01:19:33.949Z,1032
2016-12-30T01:22:06.286Z,1032
2016-12-30T01:24:38.592Z,1032
2016-12-30T01:27:10.945Z,1032
2016-12-30T01:29:43.248Z,1032
2016-12-30T01:32:15.577Z,1032
2016-12-30T01:34:47.885Z,1032
2016-12-30T01:37:20.217Z,1031.9
2016-12-30T01:39:52.542Z,1031.9
2016-12-30T01:42:24.868Z,1031.9
2016-12-30T01:44:57.201Z,1031.9
2016-12-30T01:47:29.508Z,1031.9
2016-12-30T01:50:02.029Z,1031.9
2016-12-30T01:52:34.358Z,1031.9
2016-12-30T01:55:06.666Z,1032
2016-12-30T01:57:38.998Z,1032
2016-12-30T02:00:11.336Z,1032
2016-12-30T02:02:43.658Z,1031.9
2016-12-30T02:05:15.993Z,1031.9
2016-12-30T02:07:48.299Z,1031.9
2016-12-30T02:10:20.608Z,1031.8
2016-12-30T02:12:52.921Z,1031.8
2016-12-30T02:15:25.239Z,1031.8
2016-12-30T02:17:57.549Z,1031.8
2016-12-30T02:20:29.866Z,1031.7
2016-12-30T02:23:02.197Z,1031.7
2016-12-30T02:25:34.520Z,1031.7
2016-12-30T02:28:06.827Z,1031.8
2016-12-30T02:30:39.149Z,1031.8
2016-12-30T02:33:11.462Z,1031.8
2016-12-30T02:35:43.773Z,1031.8
2016-12-30T02:38:16.086Z,1031.8
2016-12-30T02:40:48.405Z,1031.8
2016-12-30T02:43:21.158Z,1031.7
2016-12-30T02:45:53.469Z,1031.7
2016-12-30T02:48:25.795Z,1031.7
2016-12-30T02:50:58.096Z,1031.7
2016-12-30T02:53:30.434Z,1031.7
2016-12-30T02:56:02.752Z,1031.7
2016-12-30T02:58:35.064Z,1031.7
2016-12-30T03:01:07.374Z,1031.7
2016-12-30T03:03:39.705Z,1031.6
2016-12-30T03:06:12.012Z,1031.7
2016-12-30T03:08:44.330Z,1031.7
2016-12-30T03:11:16.649Z,1031.7
2016-12-30T03:13:48.975Z,1031.7
2016-12-30T03:16:21.301Z,1031.7
2016-12-30T03:18:53.606Z,1031.7
2016-12-30T03:21:25.920Z,1031.7
2016-12-30T03:23:58.238Z,1031.6
2016-12-30T03:26:30.536Z,1031.6
2016-12-30T03:29:02.843Z,1031.6
2016-12-30T03:31:35.185Z,1031.5
2016-12-30T03:34:07.504Z,1031.5
2016-12-30T03:36:39.801Z,1031.6
2016-12-30T03:39:12.130Z,1031.6
2016-12-30T03:41:44.454Z,1031.6
2016-12-30T03:44:16.796Z,1031.5
2016-12-30T03:46:49.108Z,1031.5
2016-12-30T03:49:21.412Z,1031.5
2016-12-30T03:51:53.750Z,1031.4
2016-12-30T03:54:26.059Z,1031.5
2016-12-30T03:56:58.376Z,1031.4
2016-12-30T03:59:30.696Z,1031.4
2016-12-30T04:02:03.003Z,1031.3
2016-12-30T04:04:35.316Z,1031.3
2016-12-30T04:07:07.640Z,1031.2
2016-12-30T04:09:39.950Z,1031.2
2016-12-30T04:12:12.253Z,1031.2
2016-12-30T04:14:44.579Z,1031.2
2016-12-30T04:17:16.882Z,1031.2
2016-12-30T04:19:49.213Z,1031.2
2016-12-30T04:22:21.520Z,1031.1
2016-12-30T04:24:53.834Z,1031.2
2016-12-30T04:27:26.159Z,1031.1
2016-12-30T04:29:58.480Z,1031.2
2016-12-30T04:32:30.785Z,1031.1
2016-12-30T04:35:03.103Z,1031.1
2016-12-30T04:37:35.428Z,1031.1
2016-12-30T04:40:07.750Z,1031.1
2016-12-30T04:42:40.073Z,1031.1
2016-12-30T04:45:12.405Z,1031
2016-12-30T04:47:45.325Z,1031
2016-12-30T04:50:17.646Z,1030.9
2016-12-30T04:52:49.945Z,1030.9
2016-12-30T04:55:22.272Z,1030.9
2016-12-30T04:57:54.600Z,1030.9
2016-12-30T05:00:26.896Z,1030.8
2016-12-30T05:02:59.213Z,1030.8
2016-12-30T05:05:31.528Z,1030.9
2016-12-30T05:08:03.857Z,1030.8
2016-12-30T05:10:36.181Z,1030.9
2016-12-30T05:13:08.502Z,1030.8
2016-12-30T05:15:40.832Z,1030.9
2016-12-30T05:18:13.142Z,1030.9
2016-12-30T05:20:45.468Z,1030.9
2016-12-30T05:23:17.775Z,1030.9
2016-12-30T05:25:50.102Z,1030.8
2016-12-30T05:28:22.401Z,1030.8
2016-12-30T05:30:54.707Z,1030.8
2016-12-30T05:33:27.049Z,1030.8
2016-12-30T05:35:59.367Z,1030.7
2016-12-30T05:38:31.715Z,1030.7
2016-12-30T05:41:04.029Z,1030.7
2016-12-30T05:43:36.982Z,1030.7
2016-12-30T05:46:09.297Z,1030.8
2016-12-30T05:48:41.615Z,1030.7
2016-12-30T05:51:13.934Z,1030.7
2016-12-30T05:53:46.244Z,1030.7
2016-12-30T05:56:18.593Z,1030.7
2016-12-30T05:58:51.095Z,1030.7
2016-12-30T06:01:23.411Z,1030.7
2016-12-30T06:04:15.687Z,1030.6
2016-12-30T06:07:11.076Z,1030.5
2016-12-30T06:09:43.390Z,1030.6
2016-12-30T06:12:15.724Z,1030.6
2016-12-30T06:14:48.055Z,1030.6
2016-12-30T06:17:20.652Z,1030.6
2016-12-30T06:19:53.133Z,1030.6
2016-12-30T06:22:25.452Z,1030.6
2016-12-30T06:24:57.785Z,1030.7
2016-12-30T06:27:30.100Z,1030.8
2016-12-30T06:30:02.435Z,1030.8
2016-12-30T06:32:34.767Z,1030.8
2016-12-30T06:35:07.075Z,1030.6
2016-12-30T06:37:39.406Z,1030.6
2016-12-30T06:40:11.731Z,1030.6
2016-12-30T06:42:44.455Z,1030.6
2016-12-30T06:45:16.755Z,1030.7
2016-12-30T06:47:49.069Z,1030.6
2016-12-30T06:50:21.387Z,1030.6
2016-12-30T06:52:53.716Z,1030.6
2016-12-30T06:55:26.051Z,1030.6
2016-12-30T06:57:58.373Z,1030.5
2016-12-30T07:00:30.717Z,1030.5
2016-12-30T07:03:03.052Z,1030.5
2016-12-30T07:05:36.846Z,1030.4
2016-12-30T07:08:10.966Z,1030.4
2016-12-30T07:10:44.256Z,1030.3
2016-12-30T07:13:16.596Z,1030.2
2016-12-30T07:15:48.964Z,1030.3
2016-12-30T07:18:21.302Z,1030.3
2016-12-30T07:20:53.629Z,1030.3
2016-12-30T07:23:26.002Z,1030.3
2016-12-30T07:25:58.489Z,1030.3
2016-12-30T07:28:31.061Z,1030.3
2016-12-30T07:31:03.384Z,1030.4
2016-12-30T07:33:35.695Z,1030.4
2016-12-30T07:36:08.002Z,1030.4
2016-12-30T07:38:40.326Z,1030.4
2016-12-30T07:41:12.657Z,1030.4
2016-12-30T07:43:44.966Z,1030.4
2016-12-30T07:46:17.303Z,1030.4
2016-12-30T07:48:49.620Z,1030.4
2016-12-30T07:51:21.948Z,1030.5
2016-12-30T07:53:54.300Z,1030.4
2016-12-30T07:56:26.626Z,1030.4
2016-12-30T07:58:58.949Z,1030.4
2016-12-30T08:01:31.271Z,1030.3
2016-12-30T08:04:03.596Z,1030.2
2016-12-30T08:06:35.916Z,1030.2
2016-12-30T08:09:08.244Z,1030.2
2016-12-30T08:11:40.547Z,1030.2
2016-12-30T08:14:12.875Z,1030.2
2016-12-30T08:16:45.218Z,1030.2
2016-12-30T08:19:17.522Z,1030.1
2016-12-30T08:21:49.841Z,1030.1
2016-12-30T08:24:22.593Z,1030
2016-12-30T08:26:54.910Z,1030
2016-12-30T08:29:27.225Z,1030
2016-12-30T08:31:59.554Z,1030
2016-12-30T08:34:31.888Z,1030.1
2016-12-30T08:37:04.210Z,1030.1
2016-12-30T08:39:36.525Z,1030.1
2016-12-30T08:42:08.855Z,1030
2016-12-30T08:44:41.183Z,1030
2016-12-30T08:47:13.536Z,1029.9
2016-12-30T08:49:45.961Z,1029.9
2016-12-30T08:52:18.328Z,1029.9
2016-12-30T08:54:50.756Z,1030
2016-12-30T08:57:23.129Z,1030
2016-12-30T08:59:55.540Z,1029.9
2016-12-30T09:02:28.116Z,1029.9
2016-12-30T09:05:00.507Z,1029.9
2016-12-30T09:07:32.898Z,1029.9
2016-12-30T09:10:05.293Z,1029.8
2016-12-30T09:12:37.695Z,1029.9
2016-12-30T09:15:10.080Z,1029.9
2016-12-30T09:17:42.453Z,1029.9
2016-12-30T09:20:14.858Z,1029.9
2016-12-30T09:22:47.899Z,1029.9
2016-12-30T09:25:20.302Z,1029.9
2016-12-30T09:27:52.675Z,1029.9
2016-12-30T09:30:25.068Z,1029.9
2016-12-30T09:32:57.446Z,1029.8
2016-12-30T09:35:29.844Z,1029.8
2016-12-30T09:38:02.875Z,1029.8
2016-12-30T09:40:35.258Z,1029.9
2016-12-30T09:43:07.645Z,1029.8
2016-12-30T09:45:40.020Z,1029.8
2016-12-30T09:48:12.421Z,1029.8
2016-12-30T09:50:44.839Z,1029.8
2016-12-30T09:53:17.242Z,1029.8
2016-12-30T09:55:49.634Z,1029.8
2016-12-30T09:58:22.038Z,1029.8
2016-12-30T10:00:54.449Z,1029.8
2016-12-30T10:03:26.860Z,1029.8
2016-12-30T10:05:59.262Z,1029.8
2016-12-30T10:08:31.655Z,1029.7
2016-12-30T10:11:04.045Z,1029.7
2016-12-30T10:13:36.453Z,1029.7
2016-12-30T10:16:08.847Z,1029.7
2016-12-30T10:18:41.248Z,1029.8
2016-12-30T10:21:13.623Z,1029.7
2016-12-30T10:23:46.005Z,1029.7
2016-12-30T10:26:18.401Z,1029.6
2016-12-30T10:28:50.792Z,1029.5
2016-12-30T10:31:23.201Z,1029.6
2016-12-30T10:33:55.596Z,1029.7
2016-12-30T10:36:28.002Z,1029.6
2016-12-30T10:39:00.381Z,1029.7
2016-12-30T10:41:32.784Z,1029.6
2016-12-30T10:44:05.170Z,1029.6
2016-12-30T10:46:37.574Z,1029.5
2016-12-30T10:49:09.965Z,1029.6
2016-12-30T10:51:42.357Z,1029.6
2016-12-30T10:54:14.951Z,1029.6
2016-12-30T10:56:47.356Z,1029.6
2016-12-30T10:59:19.746Z,1029.5
2016-12-30T11:01:52.144Z,1029.6
2016-12-30T11:04:24.530Z,1029.7
2016-12-30T11:06:56.944Z,1029.7
2016-12-30T11:09:29.381Z,1029.7
2016-12-30T11:12:01.784Z,1029.7
2016-12-30T11:14:34.169Z,1029.6
2016-12-30T11:17:06.552Z,1029.5
2016-12-30T11:19:38.945Z,1029.5
2016-12-30T11:22:11.348Z,1029.4
2016-12-30T11:24:43.757Z,1029.4
2016-12-30T11:27:16.152Z,1029.4
2016-12-30T11:29:48.517Z,1029.4
2016-12-30T11:32:20.917Z,1029.4
2016-12-30T11:34:53.306Z,1029.4
2016-12-30T11:37:25.682Z,1029.4
2016-12-30T11:39:58.060Z,1029.4
2016-12-30T11:42:30.452Z,1029.4
2016-12-30T11:45:02.846Z,1029.3
2016-12-30T11:47:35.239Z,1029.3
2016-12-30T11:50:07.643Z,1029.2
2016-12-30T11:52:40.015Z,1029.2
2016-12-30T11:55:12.412Z,1029.1
2016-12-30T11:57:44.805Z,1029.1
2016-12-30T12:00:17.202Z,1029.1
2016-12-30T12:02:49.658Z,1029
2016-12-30T12:05:22.048Z,1028.9
2016-12-30T12:07:54.424Z,1029
2016-12-30T12:10:26.855Z,1028.9
2016-12-30T12:12:59.255Z,1028.9
2016-12-30T12:15:31.644Z,1028.9
2016-12-30T12:18:04.068Z,1028.9
2016-12-30T12:20:36.474Z,1029
2016-12-30T12:23:08.857Z,1029
2016-12-30T12:25:41.251Z,1028.9
2016-12-30T12:28:13.644Z,1028.9
2016-12-30T12:30:46.037Z,1028.9
2016-12-30T12:33:18.440Z,1028.9
2016-12-30T12:35:50.818Z,1028.9
2016-12-30T12:38:23.231Z,1028.8
2016-12-30T12:40:55.631Z,1028.7
2016-12-30T12:43:28.018Z,1028.8
2016-12-30T12:46:00.396Z,1028.8
2016-12-30T12:48:32.809Z,1028.7
2016-12-30T12:51:05.689Z,1028.6
2016-12-30T12:53:41.976Z,1028.6
2016-12-30T12:56:23.894Z,1028.6
2016-12-30T12:59:03.359Z,1028.6
2016-12-30T13:01:44.915Z,1028.7
2016-12-30T13:04:29.667Z,1028.6
2016-12-30T13:07:05.913Z,1028.5
2016-12-30T13:09:38.864Z,1028.4
2016-12-30T13:12:11.252Z,1028.4
2016-12-30T13:14:43.796Z,1028.3
2016-12-30T13:17:16.211Z,1028.3
2016-12-30T13:19:48.834Z,1028.3
2016-12-30T13:22:21.231Z,1028.2
2016-12-30T13:24:53.646Z,1028.2
2016-12-30T13:27:26.296Z,1028.2
2016-12-30T13:29:58.682Z,1028.1
2016-12-30T13:32:31.088Z,1028.2
2016-12-30T13:35:03.461Z,1028.1
2016-12-30T13:37:35.879Z,1028.2
2016-12-30T13:40:08.277Z,1028.1
2016-12-30T13:42:40.663Z,1028.1
2016-12-30T13:45:13.067Z,1028.1
2016-12-30T13:47:45.488Z,1028.1
2016-12-30T13:50:17.871Z,1028
2016-12-30T13:52:50.272Z,1028.1
2016-12-30T13:55:22.680Z,1028
2016-12-30T13:57:55.099Z,1028
2016-12-30T14:00:27.510Z,1028.1
2016-12-30T14:02:59.908Z,1028.1
2016-12-30T14:05:32.309Z,1028.1
2016-12-30T14:08:04.683Z,1028.1
2016-12-30T14:10:37.091Z,1028
2016-12-30T14:13:09.486Z,1028.1
2016-12-30T14:15:41.884Z,1028.1
2016-12-30T14:18:14.281Z,1028.2
2016-12-30T14:20:46.678Z,1028.2
2016-12-30T14:23:19.083Z,1028.2
2016-12-30T14:25:51.471Z,1028.2
2016-12-30T14:28:23.871Z,1028.2
2016-12-30T14:30:56.255Z,1028.2
2016-12-30T14:33:28.654Z,1028.2
2016-12-30T14:36:01.057Z,1028.2
2016-12-30T14:38:33.462Z,1028.2
2016-12-30T14:41:05.888Z,1028.2
2016-12-30T14:43:38.272Z,1028.1
2016-12-30T14:46:10.672Z,1028.2
2016-12-30T14:48:43.081Z,1028.1
2016-12-30T14:51:15.497Z,1028.1
2016-12-30T14:53:47.919Z,1028.1
2016-12-30T14:56:20.315Z,1028.1
2016-12-30T14:58:52.702Z,1028.1
2016-12-30T15:01:25.101Z,1028.1
2016-12-30T15:03:57.515Z,1028.1
2016-12-30T15:06:29.920Z,1028
2016-12-30T15:09:02.312Z,1028
2016-12-30T15:11:34.706Z,1028
2016-12-30T15:14:07.110Z,1028
2016-12-30T15:16:39.502Z,1028
2016-12-30T15:19:11.912Z,1028
2016-12-30T15:21:44.321Z,1028.1
2016-12-30T15:24:19.223Z,1028.2
2016-12-30T15:26:52.116Z,1028.1
2016-12-30T15:29:24.502Z,1028.1
2016-12-30T15:31:56.911Z,1028.1
2016-12-30T15:34:29.312Z,1028.2
2016-12-30T15:37:01.706Z,1028.2
2016-12-30T15:39:34.111Z,1028.1
2016-12-30T15:42:06.515Z,1028.2
2016-12-30T15:44:38.911Z,1028.1
2016-12-30T15:47:11.292Z,1028.2
2016-12-30T15:49:43.700Z,1028.1
2016-12-30T15:52:16.080Z,1028.1
2016-12-30T15:54:48.471Z,1028.1
2016-12-30T15:57:20.878Z,1028
2016-12-30T15:59:53.280Z,1028
2016-12-30T16:02:25.678Z,1028
2016-12-30T16:04:58.066Z,1028
2016-12-30T16:07:30.465Z,1028
2016-12-30T16:10:02.846Z,1028
2016-12-30T16:12:35.445Z,1028.1
2016-12-30T16:15:07.864Z,1028
2016-12-30T16:17:40.287Z,1028
2016-12-30T16:20:12.655Z,1028
2016-12-30T16:22:45.059Z,1028
2016-12-30T16:25:17.461Z,1028
2016-12-30T16:27:49.845Z,1028
2016-12-30T16:30:22.226Z,1027.9
2016-12-30T16:32:54.626Z,1028
2016-12-30T16:35:27.041Z,1027.9
2016-12-30T16:37:59.430Z,1027.9
2016-12-30T16:40:31.834Z,1027.9
2016-12-30T16:43:04.228Z,1027.9
2016-12-30T16:45:36.626Z,1027.8
2016-12-30T16:48:08.998Z,1027.8
2016-12-30T16:50:41.381Z,1027.8
2016-12-30T16:53:13.769Z,1027.8
2016-12-30T16:55:46.163Z,1027.8
2016-12-30T16:58:18.530Z,1027.7
2016-12-30T17:00:50.916Z,1027.8
2016-12-30T17:03:23.325Z,1027.7
2016-12-30T17:05:55.708Z,1027.8
2016-12-30T17:08:28.098Z,1027.7
2016-12-30T17:11:00.508Z,1027.7
2016-12-30T17:13:32.891Z,1027.7
2016-12-30T17:16:05.300Z,1027.6
2016-12-30T17:18:37.696Z,1027.6
2016-12-30T17:21:10.097Z,1027.6
2016-12-30T17:23:42.489Z,1027.5
2016-12-30T17:26:14.867Z,1027.5
2016-12-30T17:28:47.275Z,1027.5
2016-12-30T17:31:19.678Z,1027.6
2016-12-30T17:33:52.096Z,1027.5
2016-12-30T17:36:25.114Z,1027.5
2016-12-30T17:38:57.501Z,1027.5
2016-12-30T17:41:29.898Z,1027.5
2016-12-30T17:44:02.317Z,1027.5
2016-12-30T17:46:34.728Z,1027.5
2016-12-30T17:49:07.115Z,1027.5
2016-12-30T17:51:39.513Z,1027.6
2016-12-30T17:54:11.888Z,1027.6
2016-12-30T17:56:44.722Z,1027.5
2016-12-30T17:59:17.110Z,1027.5
2016-12-30T18:01:49.513Z,1027.5
2016-12-30T18:04:21.941Z,1027.4
2016-12-30T18:06:54.339Z,1027.4
2016-12-30T18:09:26.728Z,1027.4
2016-12-30T18:11:59.096Z,1027.5
2016-12-30T18:14:31.505Z,1027.5
2016-12-30T18:17:03.910Z,1027.5
2016-12-30T18:19:36.312Z,1027.6
2016-12-30T18:22:08.689Z,1027.6
2016-12-30T18:24:41.106Z,1027.7
2016-12-30T18:27:13.511Z,1027.7
2016-12-30T18:29:45.906Z,1027.5
2016-12-30T18:32:18.308Z,1027.6
2016-12-30T18:34:50.692Z,1027.5
2016-12-30T18:37:23.088Z,1027.5
2016-12-30T18:39:55.471Z,1027.5
2016-12-30T18:42:27.874Z,1027.5
2016-12-30T18:45:00.275Z,1027.6
2016-12-30T18:47:32.681Z,1027.5
2016-12-30T18:50:05.066Z,1027.6
2016-12-30T18:52:37.653Z,1027.6
2016-12-30T18:55:10.038Z,1027.6
2016-12-30T18:57:42.422Z,1027.6
2016-12-30T19:00:14.818Z,1027.5
2016-12-30T19:02:47.210Z,1027.6
2016-12-30T19:05:19.601Z,1027.5
2016-12-30T19:07:52.006Z,1027.5
2016-12-30T19:10:24.415Z,1027.5
2016-12-30T19:12:56.824Z,1027.5
2016-12-30T19:15:29.206Z,1027.5
2016-12-30T19:18:01.601Z,1027.4
2016-12-30T19:20:33.987Z,1027.4
2016-12-30T19:23:06.385Z,1027.4
2016-12-30T19:25:38.791Z,1027.5
2016-12-30T19:28:11.184Z,1027.5
2016-12-30T19:30:43.580Z,1027.5
2016-12-30T19:33:15.992Z,1027.5
2016-12-30T19:35:48.417Z,1027.5
2016-12-30T19:38:20.794Z,1027.4
2016-12-30T19:40:53.191Z,1027.5
2016-12-30T19:43:25.577Z,1027.4
2016-12-30T19:45:57.976Z,1027.4
2016-12-30T19:48:30.377Z,1027.4
2016-12-30T19:51:02.771Z,1027.3
2016-12-30T19:53:35.163Z,1027.3
2016-12-30T19:56:07.590Z,1027.3
2016-12-30T19:58:39.981Z,1027.3
2016-12-30T20:01:12.376Z,1027.2
2016-12-30T20:03:44.785Z,1027.3
2016-12-30T20:06:17.160Z,1027.2
2016-12-30T20:08:49.564Z,1027.2
2016-12-30T20:11:21.966Z,1027.2
2016-12-30T20:13:54.367Z,1027.2
2016-12-30T20:16:26.775Z,1027.2
2016-12-30T20:18:59.173Z,1027.2
2016-12-30T20:21:31.576Z,1027.2
2016-12-30T20:24:03.970Z,1027.1
2016-12-30T20:26:36.359Z,1027.1
2016-12-30T20:29:08.725Z,1027.1
2016-12-30T20:31:41.140Z,1027.1
2016-12-30T20:34:13.528Z,1027.1
2016-12-30T20:36:45.919Z,1027.1
2016-12-30T20:39:18.299Z,1027.1
2016-12-30T20:41:50.676Z,1027.1
2016-12-30T20:44:23.075Z,1027
2016-12-30T20:46:55.471Z,1027
2016-12-30T20:49:27.870Z,1027.1
2016-12-30T20:52:00.257Z,1027.1
2016-12-30T20:54:32.643Z,1027.1
2016-12-30T20:57:05.043Z,1027.1
2016-12-30T20:59:37.433Z,1027.1
2016-12-30T21:02:09.860Z,1027.1
2016-12-30T21:04:42.895Z,1027.1
2016-12-30T21:07:15.284Z,1027.1
2016-12-30T21:09:47.676Z,1027.1
2016-12-30T21:12:20.072Z,1027.1
2016-12-30T21:14:52.479Z,1027.1
2016-12-30T21:17:24.856Z,1027.1
2016-12-30T21:19:57.260Z,1027.2
2016-12-30T21:22:29.661Z,1027.2
2016-12-30T21:25:02.071Z,1027.2
2016-12-30T21:27:35.081Z,1027.2
2016-12-30T21:30:07.463Z,1027.2
2016-12-30T21:32:39.843Z,1027.1
2016-12-30T21:35:12.234Z,1027.1
2016-12-30T21:37:44.630Z,1027.1
2016-12-30T21:40:17.023Z,1027.1
2016-12-30T21:42:49.425Z,1027.1
2016-12-30T21:45:21.801Z,1027.1
2016-12-30T21:47:54.216Z,1027
2016-12-30T21:50:26.621Z,1027
2016-12-30T21:52:59.009Z,1027
2016-12-30T21:55:31.403Z,1027
2016-12-30T21:58:03.787Z,1027
2016-12-30T22:00:36.199Z,1027
2016-12-30T22:03:08.576Z,1027
2016-12-30T22:05:40.991Z,1027
2016-12-30T22:08:13.362Z,1026.9
2016-12-30T22:10:45.751Z,1026.9
2016-12-30T22:13:18.133Z,1026.8
2016-12-30T22:15:50.532Z,1026.8
2016-12-30T22:18:22.915Z,1026.8
2016-12-30T22:20:55.302Z,1026.7
2016-12-30T22:23:27.695Z,1026.7
2016-12-30T22:26:00.077Z,1026.7
2016-12-30T22:28:32.472Z,1026.7
2016-12-30T22:31:04.898Z,1026.6
2016-12-30T22:33:37.300Z,1026.6
2016-12-30T22:36:09.696Z,1026.6
2016-12-30T22:38:42.081Z,1026.6
2016-12-30T22:41:14.475Z,1026.6
2016-12-30T22:43:46.864Z,1026.5
2016-12-30T22:46:19.274Z,1026.5
2016-12-30T22:48:51.673Z,1026.4
2016-12-30T22:51:24.063Z,1026.3
2016-12-30T22:53:56.478Z,1026.4
2016-12-30T22:56:28.897Z,1026.4
2016-12-30T22:59:01.275Z,1026.3
2016-12-30T23:01:33.657Z,1026.3
2016-12-30T23:04:06.040Z,1026.3
2016-12-30T23:06:38.431Z,1026.3
2016-12-30T23:09:10.811Z,1026.3
2016-12-30T23:11:43.224Z,1026.3
2016-12-30T23:14:15.612Z,1026.4
2016-12-30T23:16:48.021Z,1026.4
2016-12-30T23:19:20.418Z,1026.3
2016-12-30T23:21:52.816Z,1026.3
2016-12-30T23:24:25.199Z,1026.3
2016-12-30T23:26:57.571Z,1026.3
2016-12-30T23:29:29.978Z,1026.2
2016-12-30T23:32:02.379Z,1026.2
2016-12-30T23:34:34.791Z,1026.2
2016-12-30T23:37:07.177Z,1026.2
2016-12-30T23:39:39.590Z,1026.2
2016-12-30T23:42:11.965Z,1026.2
2016-12-30T23:44:44.355Z,1026.2
2016-12-30T23:47:16.745Z,1026.2
2016-12-30T23:49:49.149Z,1026.1
2016-12-30T23:52:21.557Z,1026.1
2016-12-30T23:54:53.938Z,1026
2016-12-30T23:57:26.335Z,1026.1
2016-12-30T23:59:58.726Z,1026.1
